createdAt,value
2022-09-21T00:01:33.096Z,8.88
2022-09-21T00:04:03.183Z,8.85
2022-09-21T00:06:33.829Z,8.80
2022-09-21T00:09:04.040Z,8.73
2022-09-21T00:11:33.869Z,8.73
2022-09-21T00:14:10.321Z,8.71
2022-09-21T00:16:39.199Z,8.70
2022-09-21T00:19:07.233Z,8.67
2022-09-21T00:21:35.493Z,8.66
2022-09-21T00:24:04.430Z,8.66
2022-09-21T00:26:33.011Z,8.64
2022-09-21T00:29:03.849Z,8.74
2022-09-21T00:31:32.474Z,8.74
2022-09-21T00:34:00.947Z,8.70
2022-09-21T00:36:29.339Z,8.66
2022-09-21T00:39:00.957Z,8.67
2022-09-21T00:41:30.636Z,8.68
2022-09-21T00:44:17.019Z,8.67
2022-09-21T00:46:47.177Z,8.61
2022-09-21T00:49:16.290Z,8.57
2022-09-21T00:51:45.013Z,8.50
2022-09-21T00:54:23.858Z,8.45
2022-09-21T00:56:51.949Z,8.46
2022-09-21T00:59:21.788Z,8.39
2022-09-21T01:01:51.394Z,8.35
2022-09-21T01:04:20.316Z,8.28
2022-09-21T01:06:49.215Z,8.26
2022-09-21T01:09:18.180Z,8.19
2022-09-21T01:12:08.579Z,8.18
2022-09-21T01:14:48.325Z,8.09
2022-09-21T01:17:38.267Z,8.04
2022-09-21T01:20:16.368Z,7.97
2022-09-21T01:23:02.260Z,7.91
2022-09-21T01:25:48.474Z,7.85
2022-09-21T01:28:49.045Z,7.83
2022-09-21T01:31:23.974Z,7.75
2022-09-21T01:33:54.600Z,7.71
2022-09-21T01:36:28.085Z,7.66
2022-09-21T01:39:00.705Z,7.67
2022-09-21T01:41:31.896Z,7.59
2022-09-21T01:44:09.555Z,7.57
2022-09-21T01:46:38.668Z,7.50
2022-09-21T01:49:15.993Z,7.45
2022-09-21T01:51:57.371Z,7.38
2022-09-21T01:54:33.484Z,7.32
2022-09-21T01:57:17.551Z,7.29
2022-09-21T01:59:57.722Z,7.25
2022-09-21T02:02:38.492Z,7.26
2022-09-21T02:05:07.872Z,7.18
2022-09-21T02:07:37.547Z,7.16
2022-09-21T02:10:07.396Z,7.14
2022-09-21T02:12:35.354Z,7.09
2022-09-21T02:15:03.943Z,7.04
2022-09-21T02:17:52.542Z,7.01
2022-09-21T02:20:29.151Z,6.94
2022-09-21T02:23:19.355Z,6.91
2022-09-21T02:26:02.732Z,6.88
2022-09-21T02:29:08.795Z,6.85
2022-09-21T02:31:41.962Z,6.84
2022-09-21T02:34:33.481Z,6.79
2022-09-21T02:37:32.871Z,6.77
2022-09-21T02:40:36.601Z,6.76
2022-09-21T02:43:16.865Z,6.73
2022-09-21T02:45:57.153Z,6.72
2022-09-21T02:48:35.105Z,6.67
2022-09-21T02:51:17.741Z,6.72
2022-09-21T02:53:48.388Z,6.63
2022-09-21T02:56:17.158Z,6.57
2022-09-21T02:58:49.775Z,6.53
2022-09-21T03:01:19.124Z,6.64
2022-09-21T03:03:47.010Z,6.74
2022-09-21T03:06:14.966Z,6.76
2022-09-21T03:08:42.719Z,6.74
2022-09-21T03:11:11.493Z,6.69
2022-09-21T03:13:39.528Z,6.56
2022-09-21T03:16:07.806Z,6.49
2022-09-21T03:18:35.695Z,6.39
2022-09-21T03:21:03.597Z,6.42
2022-09-21T03:23:31.550Z,6.43
2022-09-21T03:25:59.298Z,6.39
2022-09-21T03:28:27.113Z,6.35
2022-09-21T03:30:55.094Z,6.26
2022-09-21T03:33:23.250Z,6.25
2022-09-21T03:35:52.046Z,6.21
2022-09-21T03:38:21.558Z,6.18
2022-09-21T03:40:50.413Z,6.14
2022-09-21T03:43:18.597Z,6.11
2022-09-21T03:45:48.208Z,6.07
2022-09-21T03:48:16.684Z,6.02
2022-09-21T03:50:45.026Z,5.95
2022-09-21T03:53:12.815Z,5.90
2022-09-21T03:55:40.915Z,5.89
2022-09-21T03:58:09.377Z,5.84
2022-09-21T04:00:39.321Z,5.86
2022-09-21T04:03:07.222Z,5.84
2022-09-21T04:05:35.023Z,5.83
2022-09-21T04:08:02.769Z,5.81
2022-09-21T04:10:33.209Z,5.80
2022-09-21T04:13:02.002Z,5.74
2022-09-21T04:15:30.395Z,5.74
2022-09-21T04:17:59.074Z,5.73
2022-09-21T04:20:27.108Z,5.75
2022-09-21T04:22:54.939Z,5.73
2022-09-21T04:25:22.772Z,5.69
2022-09-21T04:27:51.619Z,5.70
2022-09-21T04:30:19.510Z,5.69
2022-09-21T04:32:47.344Z,5.62
2022-09-21T04:35:15.225Z,5.56
2022-09-21T04:37:43.479Z,5.59
2022-09-21T04:40:11.515Z,5.59
2022-09-21T04:42:39.614Z,5.59
2022-09-21T04:45:07.962Z,5.60
2022-09-21T04:47:35.755Z,5.56
2022-09-21T04:50:03.691Z,5.57
2022-09-21T04:52:31.949Z,5.56
2022-09-21T04:54:59.706Z,5.49
2022-09-21T04:57:27.491Z,5.47
2022-09-21T04:59:55.285Z,5.45
2022-09-21T05:02:23.197Z,5.45
2022-09-21T05:04:51.309Z,5.42
2022-09-21T05:07:19.207Z,5.42
2022-09-21T05:10:05.289Z,5.39
2022-09-21T05:12:35.441Z,5.43
2022-09-21T05:15:06.015Z,5.40
2022-09-21T05:17:33.888Z,5.39
2022-09-21T05:20:01.922Z,5.42
2022-09-21T05:22:29.785Z,5.46
2022-09-21T05:24:57.710Z,5.49
2022-09-21T05:27:25.518Z,5.47
2022-09-21T05:29:53.772Z,5.46
2022-09-21T05:32:25.970Z,5.55
2022-09-21T05:35:06.484Z,5.71
2022-09-21T05:37:59.185Z,5.80
2022-09-21T05:40:27.455Z,5.80
2022-09-21T05:42:56.181Z,5.77
2022-09-21T05:45:24.380Z,5.77
2022-09-21T05:48:16.307Z,5.78
2022-09-21T05:51:25.021Z,5.84
2022-09-21T05:54:23.283Z,5.95
2022-09-21T05:57:09.406Z,6.47
2022-09-21T05:59:48.491Z,7.33
2022-09-21T06:02:34.102Z,8.09
2022-09-21T06:05:02.532Z,8.64
2022-09-21T06:07:30.467Z,9.16
2022-09-21T06:09:58.425Z,9.88
2022-09-21T06:12:26.234Z,10.29
2022-09-21T06:14:55.896Z,10.81
2022-09-21T06:17:27.185Z,11.25
2022-09-21T06:19:55.420Z,11.02
2022-09-21T06:22:23.241Z,11.04
2022-09-21T06:24:51.093Z,11.11
2022-09-21T06:27:19.999Z,11.39
2022-09-21T06:29:47.843Z,11.32
2022-09-21T06:32:15.687Z,11.50
2022-09-21T06:34:43.447Z,11.64
2022-09-21T06:37:21.231Z,11.77
2022-09-21T06:39:56.563Z,12.02
2022-09-21T06:42:24.962Z,12.42
2022-09-21T06:44:53.074Z,12.56
2022-09-21T06:47:21.449Z,12.79
2022-09-21T06:49:49.720Z,12.91
2022-09-21T06:52:17.866Z,13.32
2022-09-21T06:54:46.105Z,13.52
2022-09-21T06:57:14.998Z,13.69
2022-09-21T06:59:44.130Z,13.76
2022-09-21T07:02:12.793Z,14.21
2022-09-21T07:04:41.248Z,14.25
2022-09-21T07:07:11.882Z,14.36
2022-09-21T07:12:29.839Z,15.19
2022-09-21T07:14:58.131Z,15.15
2022-09-21T07:17:27.303Z,15.12
2022-09-21T07:19:55.360Z,15.57
2022-09-21T07:22:23.470Z,16.07
2022-09-21T07:24:51.459Z,16.10
2022-09-21T07:27:19.595Z,15.93
2022-09-21T07:29:47.773Z,16.24
2022-09-21T07:32:16.103Z,16.38
2022-09-21T07:34:46.170Z,16.52
2022-09-21T07:37:15.213Z,16.49
2022-09-21T07:39:43.144Z,16.80
2022-09-21T07:42:11.271Z,16.66
2022-09-21T07:44:39.417Z,16.81
2022-09-21T07:47:08.491Z,17.12
2022-09-21T07:49:36.808Z,16.60
2022-09-21T07:52:10.456Z,16.70
2022-09-21T07:54:39.403Z,16.90
2022-09-21T07:57:26.274Z,17.00
2022-09-21T07:59:59.027Z,16.74
2022-09-21T08:02:27.107Z,16.41
2022-09-21T08:04:55.558Z,16.51
2022-09-21T08:07:23.852Z,16.05
2022-09-21T08:09:52.033Z,15.47
2022-09-21T08:12:20.699Z,15.17
2022-09-21T08:14:49.293Z,14.87
2022-09-21T08:17:17.452Z,14.62
2022-09-21T08:19:46.041Z,14.62
2022-09-21T08:22:27.031Z,14.55
2022-09-21T08:24:57.342Z,14.59
2022-09-21T08:27:25.794Z,14.47
2022-09-21T08:29:53.965Z,14.63
2022-09-21T08:32:46.591Z,14.36
2022-09-21T08:35:10.698Z,13.95
2022-09-21T08:37:39.333Z,14.32
2022-09-21T08:40:08.384Z,14.56
2022-09-21T08:42:53.112Z,14.88
2022-09-21T08:45:25.315Z,15.08
2022-09-21T08:47:58.316Z,14.93
2022-09-21T08:50:48.681Z,14.88
2022-09-21T08:53:19.210Z,14.72
2022-09-21T08:55:47.482Z,14.87
2022-09-21T08:58:27.356Z,15.02
2022-09-21T09:01:22.652Z,14.90
2022-09-21T09:03:54.775Z,14.85
2022-09-21T09:06:37.958Z,14.90
2022-09-21T09:09:11.931Z,15.04
2022-09-21T09:12:03.212Z,15.10
2022-09-21T09:15:00.122Z,15.24
2022-09-21T09:17:52.300Z,15.28
2022-09-21T09:20:53.965Z,15.36
2022-09-21T09:23:37.947Z,15.52
2022-09-21T09:26:19.515Z,15.39
2022-09-21T09:29:01.419Z,15.39
2022-09-21T09:31:34.831Z,15.50
2022-09-21T09:34:27.620Z,15.53
2022-09-21T09:37:00.394Z,15.60
2022-09-21T09:39:30.924Z,15.62
2022-09-21T09:42:06.067Z,15.79
2022-09-21T09:44:48.903Z,16.02
2022-09-21T09:47:41.453Z,16.07
2022-09-21T09:50:25.475Z,16.00
2022-09-21T09:52:56.382Z,16.24
2022-09-21T09:55:27.093Z,16.19
2022-09-21T09:57:56.147Z,16.00
2022-09-21T10:00:23.947Z,15.98
2022-09-21T10:02:56.736Z,16.00
2022-09-21T10:05:35.610Z,15.82
2022-09-21T10:08:04.793Z,15.83
2022-09-21T10:10:37.077Z,15.80
2022-09-21T10:13:42.536Z,16.04
2022-09-21T10:16:14.894Z,16.05
2022-09-21T10:19:01.233Z,16.36
2022-09-21T10:21:41.178Z,16.52
2022-09-21T10:24:30.759Z,16.38
2022-09-21T10:27:11.872Z,16.33
2022-09-21T10:29:46.595Z,16.41
2022-09-21T10:32:15.122Z,16.55
2022-09-21T10:35:00.686Z,16.63
2022-09-21T10:37:41.153Z,16.53
2022-09-21T10:40:20.880Z,16.51
2022-09-21T10:42:58.445Z,16.14
2022-09-21T10:45:36.966Z,15.98
2022-09-21T10:48:21.178Z,16.26
2022-09-21T10:50:51.177Z,16.19
2022-09-21T10:53:32.293Z,16.18
2022-09-21T10:56:15.728Z,16.32
2022-09-21T10:59:21.826Z,16.52
2022-09-21T11:01:55.490Z,16.74
2022-09-21T11:04:38.098Z,16.63
2022-09-21T11:07:27.126Z,16.29
2022-09-21T11:10:32.076Z,16.21
2022-09-21T11:13:29.935Z,16.48
2022-09-21T11:16:09.960Z,16.49
2022-09-21T11:18:59.941Z,16.36
2022-09-21T11:21:59.004Z,16.28
2022-09-21T11:24:51.356Z,16.49
2022-09-21T11:27:28.098Z,16.60
2022-09-21T11:30:03.458Z,16.32
2022-09-21T11:32:46.475Z,16.42
2022-09-21T11:35:28.930Z,16.65
2022-09-21T11:38:05.736Z,16.53
2022-09-21T11:40:45.080Z,16.62
2022-09-21T11:43:24.530Z,16.74
2022-09-21T11:45:52.406Z,16.93
2022-09-21T11:48:38.658Z,16.99
2022-09-21T11:51:38.561Z,16.90
2022-09-21T11:54:22.095Z,16.45
2022-09-21T11:56:59.539Z,16.19
2022-09-21T11:59:42.936Z,16.26
2022-09-21T12:02:41.563Z,16.17
2022-09-21T12:05:28.416Z,15.98
2022-09-21T12:08:14.961Z,16.05
2022-09-21T12:11:13.992Z,16.21
2022-09-21T12:14:17.437Z,16.30
2022-09-21T12:17:09.717Z,16.63
2022-09-21T12:19:51.058Z,16.70
2022-09-21T12:22:39.175Z,16.79
2022-09-21T12:25:17.505Z,17.00
2022-09-21T12:27:45.426Z,16.97
2022-09-21T12:30:22.440Z,16.80
2022-09-21T12:33:13.986Z,16.95
2022-09-21T12:36:07.769Z,17.03
2022-09-21T12:38:51.633Z,17.10
2022-09-21T12:41:22.161Z,17.17
2022-09-21T12:43:52.069Z,17.24
2022-09-21T12:46:31.631Z,17.48
2022-09-21T12:49:03.240Z,17.55
2022-09-21T12:51:40.872Z,17.53
2022-09-21T12:54:25.833Z,17.38
2022-09-21T12:57:17.686Z,17.31
2022-09-21T13:00:05.842Z,17.35
2022-09-21T13:02:56.157Z,17.39
2022-09-21T13:05:36.474Z,17.27
2022-09-21T13:08:12.161Z,17.17
2022-09-21T13:10:45.931Z,17.19
2022-09-21T13:13:24.995Z,16.97
2022-09-21T13:15:53.704Z,16.80
2022-09-21T13:18:42.414Z,16.90
2022-09-21T13:21:22.920Z,17.01
2022-09-21T13:23:56.827Z,17.11
2022-09-21T13:26:36.264Z,17.15
2022-09-21T13:29:25.864Z,17.17
2022-09-21T13:32:02.291Z,17.27
2022-09-21T13:34:35.085Z,17.42
2022-09-21T13:37:13.868Z,17.46
2022-09-21T13:39:45.407Z,17.36
2022-09-21T13:42:37.130Z,17.29
2022-09-21T13:45:13.705Z,17.32
2022-09-21T13:47:43.969Z,17.36
2022-09-21T13:50:11.761Z,17.32
2022-09-21T13:52:51.978Z,17.24
2022-09-21T13:55:34.486Z,17.42
2022-09-21T13:58:27.194Z,17.46
2022-09-21T14:01:02.774Z,17.50
2022-09-21T14:03:39.698Z,17.63
2022-09-21T14:06:27.949Z,17.49
2022-09-21T14:09:00.272Z,17.49
2022-09-21T14:11:35.782Z,17.52
2022-09-21T14:14:22.009Z,17.35
2022-09-21T14:16:55.739Z,17.18
2022-09-21T14:19:26.411Z,17.19
2022-09-21T14:22:07.349Z,17.12
2022-09-21T14:24:41.950Z,17.15
2022-09-21T14:27:28.277Z,17.11
2022-09-21T14:30:00.321Z,17.11
2022-09-21T14:32:33.605Z,17.04
2022-09-21T14:35:11.144Z,17.14
2022-09-21T14:37:43.136Z,17.11
2022-09-21T14:40:21.022Z,17.06
2022-09-21T14:42:50.023Z,17.19
2022-09-21T14:45:20.586Z,17.28
2022-09-21T14:48:08.865Z,17.10
2022-09-21T14:51:09.367Z,17.10
2022-09-21T14:54:02.147Z,16.94
2022-09-21T14:56:45.174Z,16.99
2022-09-21T14:59:53.807Z,16.83
2022-09-21T15:02:24.895Z,16.83
2022-09-21T15:05:16.901Z,16.81
2022-09-21T15:08:15.759Z,16.76
2022-09-21T15:11:18.817Z,16.70
2022-09-21T15:13:56.334Z,16.70
2022-09-21T15:16:37.983Z,16.74
2022-09-21T15:19:26.129Z,16.67
2022-09-21T15:21:56.710Z,16.62
2022-09-21T15:24:34.083Z,16.52
2022-09-21T15:27:19.781Z,16.42
2022-09-21T15:29:51.337Z,16.45
2022-09-21T15:32:35.173Z,16.38
2022-09-21T15:35:06.990Z,16.29
2022-09-21T15:37:39.571Z,16.25
2022-09-21T15:40:17.658Z,16.24
2022-09-21T15:43:11.589Z,16.17
2022-09-21T15:46:01.968Z,16.11
2022-09-21T15:48:33.918Z,16.11
2022-09-21T15:51:09.383Z,16.08
2022-09-21T15:53:51.993Z,16.01
2022-09-21T15:56:23.004Z,15.96
2022-09-21T15:58:51.794Z,15.91
2022-09-21T16:01:23.496Z,15.89
2022-09-21T16:04:05.701Z,15.82
2022-09-21T16:06:41.883Z,15.79
2022-09-21T16:09:28.562Z,15.79
2022-09-21T16:11:58.414Z,15.79
2022-09-21T16:14:45.013Z,15.74
2022-09-21T16:17:17.336Z,15.77
2022-09-21T16:19:50.892Z,15.66
2022-09-21T16:22:44.718Z,15.55
2022-09-21T16:25:27.548Z,15.59
2022-09-21T16:28:17.660Z,15.52
2022-09-21T16:30:51.095Z,15.43
2022-09-21T16:33:56.841Z,15.36
2022-09-21T16:36:31.747Z,15.34
2022-09-21T16:39:07.016Z,15.32
2022-09-21T16:41:47.985Z,15.27
2022-09-21T16:44:22.701Z,15.22
2022-09-21T16:46:58.089Z,15.18
2022-09-21T16:49:30.506Z,15.07
2022-09-21T16:51:59.741Z,14.95
2022-09-21T16:54:28.243Z,14.87
2022-09-21T16:56:59.417Z,14.76
2022-09-21T16:59:28.006Z,14.63
2022-09-21T17:01:57.811Z,14.49
2022-09-21T17:04:28.883Z,14.36
2022-09-21T17:06:57.291Z,14.24
2022-09-21T17:09:35.593Z,14.19
2022-09-21T17:12:06.915Z,14.11
2022-09-21T17:14:41.910Z,14.04
2022-09-21T17:17:22.228Z,13.93
2022-09-21T17:19:52.007Z,13.81
2022-09-21T17:22:20.626Z,13.74
2022-09-21T17:24:52.305Z,13.64
2022-09-21T17:27:23.685Z,13.52
2022-09-21T17:29:53.814Z,13.38
2022-09-21T17:32:24.042Z,13.32
2022-09-21T17:35:21.581Z,13.16
2022-09-21T17:37:49.486Z,13.01
2022-09-21T17:40:17.929Z,12.90
2022-09-21T17:42:48.312Z,12.81
2022-09-21T17:45:37.612Z,12.73
2022-09-21T17:48:06.069Z,12.68
2022-09-21T17:50:34.153Z,12.56
2022-09-21T17:53:20.609Z,12.45
2022-09-21T17:56:03.370Z,12.32
2022-09-21T17:58:59.901Z,12.21
2022-09-21T18:01:36.161Z,12.12
2022-09-21T18:04:05.460Z,11.95
2022-09-21T18:06:34.334Z,11.85
2022-09-21T18:09:03.446Z,11.77
2022-09-21T18:11:56.857Z,11.62
2022-09-21T18:14:57.058Z,11.55
2022-09-21T18:17:56.239Z,11.46
2022-09-21T18:21:02.034Z,11.38
2022-09-21T18:23:42.012Z,11.39
2022-09-21T18:26:15.469Z,11.36
2022-09-21T18:28:46.241Z,11.28
2022-09-21T18:31:36.650Z,11.22
2022-09-21T18:34:23.768Z,11.10
2022-09-21T18:37:12.794Z,11.02
2022-09-21T18:40:22.471Z,10.94
2022-09-21T18:43:26.722Z,10.91
2022-09-21T18:46:22.338Z,10.87
2022-09-21T18:49:23.950Z,10.71
2022-09-21T18:52:11.291Z,10.61
2022-09-21T18:54:42.371Z,10.50
2022-09-21T18:57:16.011Z,10.47
2022-09-21T18:59:44.371Z,10.39
2022-09-21T19:02:20.104Z,10.33
2022-09-21T19:04:49.701Z,10.32
2022-09-21T19:07:40.140Z,10.28
2022-09-21T19:10:40.461Z,10.26
2022-09-21T19:13:11.257Z,10.19
2022-09-21T19:16:01.325Z,10.18
2022-09-21T19:18:47.275Z,10.18
2022-09-21T19:21:34.246Z,10.09
2022-09-21T19:24:26.831Z,10.05
2022-09-21T19:27:22.808Z,10.02
2022-09-21T19:30:06.637Z,9.97
2022-09-21T19:32:53.991Z,9.90
2022-09-21T19:35:34.357Z,9.83
2022-09-21T19:38:03.953Z,9.75
2022-09-21T19:40:40.630Z,9.73
2022-09-21T19:43:48.730Z,9.63
2022-09-21T19:46:34.083Z,9.53
2022-09-21T19:49:12.752Z,9.50
2022-09-21T19:51:57.345Z,9.46
2022-09-21T19:55:04.791Z,9.40
2022-09-21T19:58:12.936Z,9.40
2022-09-21T20:00:43.840Z,9.40
2022-09-21T20:03:35.328Z,9.36
2022-09-21T20:06:10.805Z,9.32
2022-09-21T20:08:46.957Z,9.26
2022-09-21T20:11:18.966Z,9.22
2022-09-21T20:14:20.369Z,9.30
2022-09-21T20:16:53.234Z,9.29
2022-09-21T20:19:36.545Z,9.23
2022-09-21T20:22:19.921Z,9.11
2022-09-21T20:24:50.749Z,9.01
2022-09-21T20:27:44.093Z,8.92
2022-09-21T20:30:15.749Z,8.83
2022-09-21T20:32:48.429Z,8.77
2022-09-21T20:35:19.847Z,8.73
2022-09-21T20:37:47.977Z,8.66
2022-09-21T20:40:16.334Z,8.63
2022-09-21T20:42:44.461Z,8.57
2022-09-21T20:45:13.419Z,8.53
2022-09-21T20:47:41.336Z,8.54
2022-09-21T20:50:11.946Z,8.57
2022-09-21T20:52:44.266Z,8.54
2022-09-21T20:55:17.482Z,8.45
2022-09-21T20:57:45.344Z,8.50
2022-09-21T21:00:15.968Z,8.49
2022-09-21T21:02:44.333Z,8.49
2022-09-21T21:05:12.265Z,8.42
2022-09-21T21:07:43.374Z,8.43
2022-09-21T21:10:17.379Z,8.35
2022-09-21T21:12:46.892Z,8.26
2022-09-21T21:15:15.001Z,8.22
2022-09-21T21:17:42.847Z,8.18
2022-09-21T21:20:10.989Z,8.09
2022-09-21T21:22:38.942Z,8.06
2022-09-21T21:25:07.140Z,8.04
2022-09-21T21:27:36.035Z,8.05
2022-09-21T21:30:04.606Z,8.04
2022-09-21T21:32:32.592Z,7.98
2022-09-21T21:35:00.387Z,7.98
2022-09-21T21:37:29.336Z,7.94
2022-09-21T21:39:57.712Z,7.90
2022-09-21T21:42:25.575Z,7.85
2022-09-21T21:44:53.426Z,7.80
2022-09-21T21:47:38.835Z,7.78
2022-09-21T21:50:07.902Z,7.71
2022-09-21T21:52:35.647Z,7.69
2022-09-21T21:55:04.144Z,7.67
2022-09-21T21:57:32.220Z,7.69
2022-09-21T21:59:59.968Z,7.66
2022-09-21T22:02:29.400Z,7.66
2022-09-21T22:04:57.299Z,7.66
2022-09-21T22:07:25.105Z,7.60
2022-09-21T22:09:52.974Z,7.57
2022-09-21T22:12:22.019Z,7.59
2022-09-21T22:14:49.892Z,7.50
2022-09-21T22:17:17.811Z,7.46
2022-09-21T22:19:45.705Z,7.43
2022-09-21T22:22:13.534Z,7.38
2022-09-21T22:24:41.331Z,7.30
2022-09-21T22:27:09.297Z,7.28
2022-09-21T22:29:37.176Z,7.23
2022-09-21T22:32:05.511Z,7.21
2022-09-21T22:34:33.532Z,7.19
2022-09-21T22:37:01.547Z,7.16
2022-09-21T22:39:29.569Z,7.15
2022-09-21T22:41:57.638Z,7.09
2022-09-21T22:44:25.538Z,7.05
2022-09-21T22:46:53.360Z,7.07
2022-09-21T22:49:21.533Z,7.09
2022-09-21T22:51:49.444Z,7.11
2022-09-21T22:54:20.256Z,7.14
2022-09-21T22:56:48.050Z,7.09
2022-09-21T22:59:15.735Z,7.09
2022-09-21T23:01:43.550Z,7.05
2022-09-21T23:04:13.115Z,7.04
2022-09-21T23:06:43.545Z,6.98
2022-09-21T23:09:19.808Z,6.94
2022-09-21T23:11:53.399Z,7.00
2022-09-21T23:14:22.848Z,6.95
2022-09-21T23:16:50.716Z,6.88
2022-09-21T23:19:18.489Z,6.88
2022-09-21T23:21:52.734Z,6.84
2022-09-21T23:24:20.743Z,6.76
2022-09-21T23:26:51.183Z,6.76
2022-09-21T23:29:20.179Z,6.79
2022-09-21T23:31:48.198Z,6.77
2022-09-21T23:34:16.260Z,6.73
2022-09-21T23:36:44.962Z,6.80
2022-09-21T23:39:14.391Z,6.76
2022-09-21T23:41:42.506Z,6.69
2022-09-21T23:44:10.515Z,6.69
2022-09-21T23:46:39.885Z,6.67
2022-09-21T23:49:08.339Z,6.64
2022-09-21T23:51:36.631Z,6.62
2022-09-21T23:54:05.066Z,6.56
2022-09-21T23:56:33.408Z,6.54
2022-09-21T23:59:01.637Z,6.54
